Aperitivo a Grado

Caldo: 14° in meno di ieri: Udine 19°

castelloE’ terminata, almeno per ora, la grand eondata di caldo che nella settimana scors aaveva investito l’Italia e in particolar modo il Friuli con massime in pianura fino a 38°. nel cuore della notte violenti temporali hanno restituito fresco e temperature addirittura frizzanti: a Udine si è passati dai 30/33 della mattinata di ieri ai 19° delle 11 di oggi. Piogge violente soprattutto su alcune zone montuose della regione: nella notte caduti 94 mm a Barcis e 82 a Enemonzo, ma anche 45 a Vivaro e 32 a Bicinicco

Ultimi dati rilevati – rete ARPA FVG / OSMER stampa salva
STAZIONE

ORA

CIELO

TEMPERATURA
[°C]
UMIDITÀ
[%]
PRESSIONE
[hPA]
VENTO
[km/h]
PIOGGIA
[mm]
MARE
[°C]
NEVE
[cm]
Barcis 10:00 variabile 19.7 97 2 S 0.0
Bicinicco 10:00 n. d. 18.2 99 14 NE 4.8
Boa Paloma 10:00 coperto 21.8 76 1020 39 N 0.1
Bordano 10:00 n. d. 19.3 11 NE 0.8
Capriva d.F. 10:00 coperto 18.7 92 1008 8 O 7.2
Cave del Predil 11:05 n. d. 14.8 91 917 — — 0.2
Cervignano d.F. 10:00 coperto 18.8 93 1019 4 N 12.2
Chievolis 10:00 coperto 18.6 — — 0.4
Cividale d.F. 10:00 coperto 18.8 91 1003 12 SO 1.1
Codroipo 10:00 coperto 18.8 87 1011 25 N 2.0
Coritis 10:00 n. d. 16.4 — — 0.0
Enemonzo 10:00 coperto 16.6 96 971 6 NO 1.1
Faedis 10:00 coperto 19.2 82 1000 3 SE 0.4
Fagagna 10:00 coperto 19.1 75 1000 27 N 1.7
Forni di Sopra 10:00 nuvoloso 15.0 99 915 2 E 0.6
Fossalon di G. 10:00 coperto 19.1 93 1019 19 NO 3.5
Gemona d.F. 10:00 coperto 19.7 73 995 24 N 0.4
Gradisca d’Is. 10:00 coperto 19.1 94 1015 2 S 2.5
Grado 10:00 coperto 19.7 85 1017 7 NE 6.4
Lauzacco 10:00 n. d. 18.3 93 9 N 3.8
Lignano 10:00 coperto 20.6 87 1014 46 ENE 2.5 27.1
Lussari (1760 m) 10:00 nuvoloso 8.6 73 831 22 ENE 0.2
Matajur (1630 m) 10:00 coperto 10.3 91 841 — —
Monfalcone 11:05 coperto 19.1 92 1022 6 SO 0.4
Muggia 11:05 coperto 22.2 79 1018 35 O 0.4
Musi 10:00 n. d. 20.1 50 — — 0.2
Pala d’Altei (1528 m) 10:00 poco nuvoloso 12.5 99 852 22 NO
Palazzolo d.S. 10:00 coperto 18.6 92 1014 14 NE 2.0
Paluzza 11:05 n. d. 17.1 91 950 — — 0.0
Piancavallo (1275 m) 10:00 variabile 15.5 81 875 13 N 0.0
Pontebba 09:25 n. d. 15.8 94 952 — — 0.0
Pradamano 10:00 n. d. 18.6 89 10 NO 1.0
S.Simeone (1505 m) 10:00 coperto 10.5 100 853 10 N
S.Vito al Tgl. 10:00 coperto 19.8 83 1014 14 N 1.9
San Pietro al Natisone 11:10 coperto 18.5 97 1000 4 E 0.2
Sgonico 10:00 coperto 18.0 84 988 13 NO 3.0
Talmassons 10:00 coperto 18.8 93 1016 28 NE 2.7
Tarvisio 10:00 nuvoloso 15.9 95 924 6 SE 0.5
Tolmezzo 10:00 coperto 17.5 93 14 NO 1.4
Trieste 10:00 coperto 22.9 77 1018 46 NO 5.5 28.7
Udine 10:00 coperto 19.1 85 1007 19 N 1.8
Vivaro 10:00 nuvoloso 21.0 75 998 15 NE 0.1
Zoncolan (1750 m) 10:00 coperto 9.1 87 831 32 NE 2.0

Share and Enjoy

  • Facebook
  • Twitter
  • Delicious
  • LinkedIn
  • StumbleUpon
  • Add to favorites
  • Email
  • RSS
508